Terminal Aerodrome Forecast
Issued by NWS Corpus Christi, TX

Home | Current Version | Previous Version | Text Only | Print | Product List | Glossary On
Versions: 1 2 3 4 5 6 7 8 9 10 11 12 13 14
000
FTUS44 KCRP 271700
TAFVCT
TAF
KVCT 271730Z 2718/2818 07008KT P6SM SKC
     FM280400 VRB03KT P6SM SKC
      TEMPO 2810/2814 5SM BR
     FM281600 16006KT P6SM SCT025=

USA.gov is the U.S. government's official web portal to all federal, state and local government web resources and services.